sensor_id;sensor_type;location;lat;lon;timestamp;pressure;altitude;pressure_sealevel;temperature;humidity
3254;BME280;1639;42.804;23.342;2023-02-12T00:01:20;75577.00;;;-148.52;59.72
3254;BME280;1639;42.804;23.342;2023-02-12T00:03:45;75581.13;;;-148.52;60.01
3254;BME280;1639;42.804;23.342;2023-02-12T00:06:11;75589.41;;;-148.52;60.01
3254;BME280;1639;42.804;23.342;2023-02-12T00:08:38;75614.25;;;-148.52;61.44
3254;BME280;1639;42.804;23.342;2023-02-12T00:11:15;75608.03;;;-148.52;60.16
3254;BME280;1639;42.804;23.342;2023-02-12T00:13:41;75641.16;;;-148.52;61.77
3254;BME280;1639;42.804;23.342;2023-02-12T00:16:10;75641.16;;;-148.52;61.73
3254;BME280;1639;42.804;23.342;2023-02-12T00:18:36;75637.00;;;-148.52;62.09
3254;BME280;1639;42.804;23.342;2023-02-12T00:21:02;75653.56;;;-148.52;62.86
3254;BME280;1639;42.804;23.342;2023-02-12T00:23:28;75641.16;;;-148.52;63.20
3254;BME280;1639;42.804;23.342;2023-02-12T00:25:53;75637.00;;;-148.52;62.82
3254;BME280;1639;42.804;23.342;2023-02-12T00:28:18;75634.94;;;-148.52;62.71
3254;BME280;1639;42.804;23.342;2023-02-12T00:30:44;75649.44;;;-148.52;63.49
3254;BME280;1639;42.804;23.342;2023-02-12T00:33:09;75651.50;;;-148.52;63.80
3254;BME280;1639;42.804;23.342;2023-02-12T00:35:35;75674.25;;;-148.52;64.85
3254;BME280;1639;42.804;23.342;2023-02-12T00:38:00;75690.81;;;-148.52;65.71
3254;BME280;1639;42.804;23.342;2023-02-12T00:40:25;75686.69;;;-148.52;66.98
3254;BME280;1639;42.804;23.342;2023-02-12T00:42:51;75663.91;;;-148.52;66.57
3254;BME280;1639;42.804;23.342;2023-02-12T00:45:16;75639.09;;;-148.52;66.24
3254;BME280;1639;42.804;23.342;2023-02-12T00:47:42;75641.16;;;-148.52;66.08
3254;BME280;1639;42.804;23.342;2023-02-12T00:50:07;75637.00;;;-148.52;65.71
3254;BME280;1639;42.804;23.342;2023-02-12T00:52:33;75628.72;;;-148.52;65.87
3254;BME280;1639;42.804;23.342;2023-02-12T00:54:59;75618.38;;;-148.52;65.68
3254;BME280;1639;42.804;23.342;2023-02-12T00:57:24;75622.53;;;-148.52;64.96
3254;BME280;1639;42.804;23.342;2023-02-12T00:59:50;75628.72;;;-148.52;65.54
3254;BME280;1639;42.804;23.342;2023-02-12T01:02:15;75624.59;;;-148.52;65.47
3254;BME280;1639;42.804;23.342;2023-02-12T01:04:42;75626.66;;;-148.52;65.31
3254;BME280;1639;42.804;23.342;2023-02-12T01:07:08;75630.81;;;-148.52;65.68
3254;BME280;1639;42.804;23.342;2023-02-12T01:09:33;75624.59;;;-148.52;65.94
3254;BME280;1639;42.804;23.342;2023-02-12T01:11:59;75605.97;;;-148.52;66.12
3254;BME280;1639;42.804;23.342;2023-02-12T01:14:24;75589.41;;;-148.52;65.10
3254;BME280;1639;42.804;23.342;2023-02-12T01:16:49;75562.50;;;-148.52;65.25
3254;BME280;1639;42.804;23.342;2023-02-12T01:19:15;75562.50;;;-148.52;64.41
3254;BME280;1639;42.804;23.342;2023-02-12T01:21:40;75562.50;;;-148.52;64.17
3254;BME280;1639;42.804;23.342;2023-02-12T01:24:06;75562.50;;;-148.52;64.41
3254;BME280;1639;42.804;23.342;2023-02-12T01:26:32;75543.88;;;-148.52;64.18
3254;BME280;1639;42.804;23.342;2023-02-12T01:29:03;75529.41;;;-148.52;64.07
3254;BME280;1639;42.804;23.342;2023-02-12T01:31:31;75514.91;;;-148.52;63.65
3254;BME280;1639;42.804;23.342;2023-02-12T01:33:58;75492.16;;;-148.52;62.65
3254;BME280;1639;42.804;23.342;2023-02-12T01:36:26;75461.09;;;-148.52;61.80
3254;BME280;1639;42.804;23.342;2023-02-12T01:38:51;75459.03;;;-148.52;61.54
3254;BME280;1639;42.804;23.342;2023-02-12T01:41:20;75432.13;;;-148.52;61.01
3254;BME280;1639;42.804;23.342;2023-02-12T01:44:04;75405.22;;;-148.52;60.19
3254;BME280;1639;42.804;23.342;2023-02-12T01:46:30;75390.75;;;-148.52;59.42
3254;BME280;1639;42.804;23.342;2023-02-12T01:48:55;75386.59;;;-148.52;59.63
3254;BME280;1639;42.804;23.342;2023-02-12T01:51:21;75363.84;;;-148.52;58.90
3254;BME280;1639;42.804;23.342;2023-02-12T01:53:52;75363.84;;;-148.52;58.87
3254;BME280;1639;42.804;23.342;2023-02-12T01:56:19;75363.84;;;-148.52;58.61
3254;BME280;1639;42.804;23.342;2023-02-12T01:58:46;75370.03;;;-148.52;58.52
3254;BME280;1639;42.804;23.342;2023-02-12T02:01:20;75370.03;;;-148.52;58.40
3254;BME280;1639;42.804;23.342;2023-02-12T02:03:49;75392.81;;;-148.52;58.30
3254;BME280;1639;42.804;23.342;2023-02-12T02:06:21;75463.16;;;-148.52;59.27
3254;BME280;1639;42.804;23.342;2023-02-12T02:08:51;75502.50;;;-148.52;60.47
3254;BME280;1639;42.804;23.342;2023-02-12T02:11:17;75510.78;;;-148.52;61.10
3254;BME280;1639;42.804;23.342;2023-02-12T02:14:01;75523.19;;;-148.52;62.11
3254;BME280;1639;42.804;23.342;2023-02-12T02:22:39;75535.59;;;-148.52;63.13
3254;BME280;1639;42.804;23.342;2023-02-12T02:30:56;75508.69;;;-148.52;62.78
3254;BME280;1639;42.804;23.342;2023-02-12T02:39:15;75500.41;;;-148.52;62.39
3254;BME280;1639;42.804;23.342;2023-02-12T02:44:32;75529.41;;;-148.52;64.24
3254;BME280;1639;42.804;23.342;2023-02-12T02:47:00;75519.06;;;-148.52;64.02
3254;BME280;1639;42.804;23.342;2023-02-12T02:49:32;75496.28;;;-148.52;63.93
3254;BME280;1639;42.804;23.342;2023-02-12T02:52:06;75488.00;;;-148.52;63.17
3254;BME280;1639;42.804;23.342;2023-02-12T02:54:42;75479.72;;;-148.52;63.73
3254;BME280;1639;42.804;23.342;2023-02-12T02:57:15;75467.31;;;-148.52;63.23
3254;BME280;1639;42.804;23.342;2023-02-12T02:59:52;75463.16;;;-148.52;62.67
3254;BME280;1639;42.804;23.342;2023-02-12T03:02:25;75463.16;;;-148.52;62.67
3254;BME280;1639;42.804;23.342;2023-02-12T03:04:56;75454.91;;;-148.52;62.64
3254;BME280;1639;42.804;23.342;2023-02-12T03:10:06;75481.78;;;-148.52;64.04
3254;BME280;1639;42.804;23.342;2023-02-12T03:12:54;75504.56;;;-148.52;65.28
3254;BME280;1639;42.804;23.342;2023-02-12T03:15:29;75502.50;;;-148.52;66.25
3254;BME280;1639;42.804;23.342;2023-02-12T03:17:57;75479.72;;;-148.52;65.71
3254;BME280;1639;42.804;23.342;2023-02-12T03:20:28;75463.16;;;-148.52;65.05
3254;BME280;1639;42.804;23.342;2023-02-12T03:23:00;75461.09;;;-148.52;64.60
3254;BME280;1639;42.804;23.342;2023-02-12T03:25:33;75479.72;;;-148.52;65.08
3254;BME280;1639;42.804;23.342;2023-02-12T03:31:00;75477.66;;;-148.52;64.89
3254;BME280;1639;42.804;23.342;2023-02-12T03:39:06;75446.63;;;-148.52;63.56
3254;BME280;1639;42.804;23.342;2023-02-12T03:41:40;75430.06;;;-148.52;63.64
3254;BME280;1639;42.804;23.342;2023-02-12T03:49:39;75421.78;;;-148.52;61.63
3254;BME280;1639;42.804;23.342;2023-02-12T03:52:08;75425.91;;;-148.52;61.98
3254;BME280;1639;42.804;23.342;2023-02-12T03:54:34;75436.28;;;-148.52;61.63
3254;BME280;1639;42.804;23.342;2023-02-12T03:57:05;75434.19;;;-148.52;61.65
3254;BME280;1639;42.804;23.342;2023-02-12T03:59:34;75413.50;;;-148.52;61.90
3254;BME280;1639;42.804;23.342;2023-02-12T04:02:00;75425.91;;;-148.52;61.02
3254;BME280;1639;42.804;23.342;2023-02-12T04:04:26;75436.28;;;-148.52;61.38
3254;BME280;1639;42.804;23.342;2023-02-12T04:06:53;75425.91;;;-148.52;61.45
3254;BME280;1639;42.804;23.342;2023-02-12T04:09:19;75459.03;;;-148.52;61.63
3254;BME280;1639;42.804;23.342;2023-02-12T04:17:49;75488.00;;;-148.52;63.55
3254;BME280;1639;42.804;23.342;2023-02-12T04:25:52;75479.72;;;-148.52;62.93
3254;BME280;1639;42.804;23.342;2023-02-12T04:28:35;75467.31;;;-148.52;62.50
3254;BME280;1639;42.804;23.342;2023-02-12T04:33:48;75446.63;;;-148.52;61.69
3254;BME280;1639;42.804;23.342;2023-02-12T04:36:33;75434.19;;;-148.52;61.55
3254;BME280;1639;42.804;23.342;2023-02-12T04:39:08;75413.50;;;-148.52;61.71
3254;BME280;1639;42.804;23.342;2023-02-12T04:41:37;75417.66;;;-148.52;61.04
3254;BME280;1639;42.804;23.342;2023-02-12T04:44:17;75432.13;;;-148.52;61.23
3254;BME280;1639;42.804;23.342;2023-02-12T04:46:43;75438.34;;;-148.52;61.75
3254;BME280;1639;42.804;23.342;2023-02-12T04:49:14;75432.13;;;-148.52;60.92
3254;BME280;1639;42.804;23.342;2023-02-12T04:51:40;75430.06;;;-148.52;61.42
3254;BME280;1639;42.804;23.342;2023-02-12T04:54:06;75417.66;;;-148.52;61.05
3254;BME280;1639;42.804;23.342;2023-02-12T04:56:31;75403.16;;;-148.52;60.91
3254;BME280;1639;42.804;23.342;2023-02-12T04:58:56;75409.38;;;-148.52;60.49
3254;BME280;1639;42.804;23.342;2023-02-12T05:01:22;75394.88;;;-148.52;60.82
3254;BME280;1639;42.804;23.342;2023-02-12T05:03:48;75401.09;;;-148.52;61.17
3254;BME280;1639;42.804;23.342;2023-02-12T05:06:13;75390.75;;;-148.52;61.14
3254;BME280;1639;42.804;23.342;2023-02-12T05:08:39;75378.31;;;-148.52;60.20
3254;BME280;1639;42.804;23.342;2023-02-12T05:11:05;75376.25;;;-148.52;59.65
3254;BME280;1639;42.804;23.342;2023-02-12T05:13:31;75384.53;;;-148.52;59.95
3254;BME280;1639;42.804;23.342;2023-02-12T05:15:57;75403.16;;;-148.52;60.93
3254;BME280;1639;42.804;23.342;2023-02-12T05:18:22;75407.28;;;-148.52;61.04
3254;BME280;1639;42.804;23.342;2023-02-12T05:20:55;75411.44;;;-148.52;60.75
3254;BME280;1639;42.804;23.342;2023-02-12T05:23:21;75434.19;;;-148.52;61.57
3254;BME280;1639;42.804;23.342;2023-02-12T05:25:47;75438.34;;;-148.52;61.54
3254;BME280;1639;42.804;23.342;2023-02-12T05:28:12;75438.34;;;-148.52;62.29
3254;BME280;1639;42.804;23.342;2023-02-12T05:30:37;75442.47;;;-148.52;61.96
3254;BME280;1639;42.804;23.342;2023-02-12T05:33:03;75442.47;;;-148.52;62.21
3254;BME280;1639;42.804;23.342;2023-02-12T05:35:28;75454.91;;;-148.52;61.90
3254;BME280;1639;42.804;23.342;2023-02-12T05:37:53;75430.06;;;-148.52;61.58
3254;BME280;1639;42.804;23.342;2023-02-12T05:40:19;75434.19;;;-148.52;61.22
3254;BME280;1639;42.804;23.342;2023-02-12T05:42:44;75440.41;;;-148.52;61.31
3254;BME280;1639;42.804;23.342;2023-02-12T05:45:10;75434.19;;;-148.52;61.63
3254;BME280;1639;42.804;23.342;2023-02-12T05:47:35;75421.78;;;-148.52;61.03
3254;BME280;1639;42.804;23.342;2023-02-12T05:50:00;75425.91;;;-148.52;60.76
3254;BME280;1639;42.804;23.342;2023-02-12T05:52:26;75417.66;;;-148.52;60.73
3254;BME280;1639;42.804;23.342;2023-02-12T05:54:51;75401.09;;;-148.52;60.43
3254;BME280;1639;42.804;23.342;2023-02-12T05:57:17;75382.47;;;-148.52;60.26
3254;BME280;1639;42.804;23.342;2023-02-12T05:59:42;75376.25;;;-148.52;59.69
3254;BME280;1639;42.804;23.342;2023-02-12T06:02:07;75361.78;;;-148.52;60.11
3254;BME280;1639;42.804;23.342;2023-02-12T06:04:33;75357.63;;;-148.52;60.31
3254;BME280;1639;42.804;23.342;2023-02-12T06:06:59;75355.56;;;-148.52;60.02
3254;BME280;1639;42.804;23.342;2023-02-12T06:09:24;75355.56;;;-148.52;60.28
3254;BME280;1639;42.804;23.342;2023-02-12T06:11:50;75347.28;;;-148.52;60.20
3254;BME280;1639;42.804;23.342;2023-02-12T06:14:18;75347.28;;;-148.52;60.28
3254;BME280;1639;42.804;23.342;2023-02-12T06:16:49;75345.22;;;-148.52;60.23
3254;BME280;1639;42.804;23.342;2023-02-12T06:19:15;75343.16;;;-148.52;59.85
3254;BME280;1639;42.804;23.342;2023-02-12T06:21:41;75334.88;;;-148.52;59.55
3254;BME280;1639;42.804;23.342;2023-02-12T06:24:06;75343.16;;;-148.52;60.89
3254;BME280;1639;42.804;23.342;2023-02-12T06:26:32;75330.72;;;-148.52;66.29
3254;BME280;1639;42.804;23.342;2023-02-12T06:28:57;75310.03;;;-148.52;69.65
3254;BME280;1639;42.804;23.342;2023-02-12T06:31:24;75295.53;;;-148.52;72.44
3254;BME280;1639;42.804;23.342;2023-02-12T06:33:52;75289.34;;;-148.52;75.27
3254;BME280;1639;42.804;23.342;2023-02-12T06:36:18;75274.84;;;-148.52;76.10
3254;BME280;1639;42.804;23.342;2023-02-12T06:38:44;75260.38;;;-148.52;76.56
